Time;durP1;ratioP1;P1;durP2;ratioP2;P2;SDS_P1;SDS_P2;PMS_P1;PMS_P2;Temp;Humidity;BMP_temperature;BMP_pressure;BME280_temperature;BME280_humidity;BME280_pressure;Samples;Min_cycle;Max_cycle;Signal;HPM_P1;HPM_P2
2021/06/17 00:00:24;;;;;;;2.90;2.20;;;19.30;61.30;;;;;;4997690;28;20061;-69
2021/06/17 00:02:50;;;;;;;4.30;2.40;;;19.30;62.00;;;;;;4997480;28;20039;-69
2021/06/17 00:05:18;;;;;;;2.30;2.10;;;19.20;61.50;;;;;;4996387;28;20093;-69
2021/06/17 00:07:46;;;;;;;2.50;2.30;;;19.20;61.90;;;;;;4999979;28;20113;-69
2021/06/17 00:10:26;;;;;;;3.22;2.38;;;19.20;61.80;;;;;;4995887;28;20080;-69
2021/06/17 00:12:52;;;;;;;3.13;2.20;;;19.10;62.90;;;;;;4997472;28;20034;-68
2021/06/17 00:15:21;;;;;;;2.50;2.15;;;19.10;61.90;;;;;;4996552;28;20038;-69
2021/06/17 00:17:47;;;;;;;3.30;2.15;;;19.10;62.10;;;;;;4997491;28;20036;-69
2021/06/17 00:20:14;;;;;;;3.08;2.30;;;19.00;61.90;;;;;;4996129;28;20035;-69
2021/06/17 00:22:39;;;;;;;6.15;2.42;;;19.00;62.20;;;;;;4998755;28;20026;-69
2021/06/17 00:25:06;;;;;;;2.78;2.50;;;18.90;62.20;;;;;;4996844;28;20042;-69
2021/06/17 00:27:31;;;;;;;3.67;2.33;;;18.90;62.50;;;;;;4995454;28;20057;-68
2021/06/17 00:29:57;;;;;;;2.42;2.22;;;18.90;62.70;;;;;;4994034;28;20071;-69
2021/06/17 00:32:23;;;;;;;2.40;2.20;;;18.80;62.70;;;;;;4997082;28;20037;-69
2021/06/17 00:34:48;;;;;;;2.67;2.30;;;18.80;62.60;;;;;;4996857;28;20396;-68
2021/06/17 00:37:16;;;;;;;4.07;2.22;;;18.80;62.70;;;;;;4997618;28;20034;-68
2021/06/17 00:39:42;;;;;;;3.95;2.10;;;18.70;62.70;;;;;;4995335;28;20034;-69
2021/06/17 00:42:08;;;;;;;2.97;2.50;;;18.70;62.40;;;;;;4992220;28;20029;-69
2021/06/17 00:44:34;;;;;;;4.18;2.50;;;18.60;62.50;;;;;;4997694;28;20038;-69
2021/06/17 00:47:00;;;;;;;2.53;2.33;;;18.60;62.60;;;;;;5012097;28;20038;-68
2021/06/17 00:49:26;;;;;;;6.72;2.80;;;18.50;62.70;;;;;;4998915;28;20523;-69
2021/06/17 00:51:52;;;;;;;4.82;2.33;;;18.50;62.90;;;;;;4998432;28;20038;-69
2021/06/17 00:54:34;;;;;;;3.50;2.13;;;18.40;63.20;;;;;;4996252;28;20559;-68
2021/06/17 00:57:06;;;;;;;4.43;2.50;;;18.40;63.70;;;;;;4993730;28;20098;-69
2021/06/17 00:59:32;;;;;;;2.47;2.28;;;18.30;63.90;;;;;;5013934;28;20042;-69
2021/06/17 01:01:58;;;;;;;3.25;2.47;;;18.30;63.50;;;;;;4996682;28;20041;-69
2021/06/17 01:04:25;;;;;;;2.65;2.45;;;18.30;63.60;;;;;;4997033;28;20038;-69
2021/06/17 01:06:52;;;;;;;2.67;2.47;;;18.20;63.90;;;;;;4995608;28;20575;-69
2021/06/17 01:09:34;;;;;;;2.45;2.25;;;18.20;64.10;;;;;;4995288;28;20676;-69
2021/06/17 01:12:11;;;;;;;3.05;2.45;;;18.10;65.20;;;;;;4994268;28;20121;-69
2021/06/17 01:15:03;;;;;;;3.08;2.53;;;18.10;65.40;;;;;;4994680;28;20034;-68
2021/06/17 01:17:32;;;;;;;2.50;2.17;;;18.10;65.90;;;;;;5010335;28;20967;-68
2021/06/17 01:20:25;;;;;;;2.58;2.38;;;18.10;64.60;;;;;;4996980;28;20537;-69
2021/06/17 01:23:13;;;;;;;3.58;2.42;;;18.10;65.80;;;;;;4996267;28;20034;-69
2021/06/17 01:26:13;;;;;;;2.83;2.55;;;18.10;65.10;;;;;;4991546;28;20037;-69
2021/06/17 01:28:40;;;;;;;2.65;2.30;;;18.00;65.90;;;;;;5010718;28;20026;-69
2021/06/17 01:31:11;;;;;;;3.53;2.47;;;18.00;65.00;;;;;;4998368;28;20202;-69
2021/06/17 01:33:41;;;;;;;4.55;2.72;;;18.00;65.30;;;;;;4997500;28;20443;-68
2021/06/17 01:36:15;;;;;;;3.15;2.72;;;18.00;65.30;;;;;;4997518;28;20081;-68
2021/06/17 01:38:42;;;;;;;3.05;2.72;;;18.00;65.40;;;;;;4998193;28;20045;-69
2021/06/17 01:41:10;;;;;;;3.10;2.90;;;17.90;66.10;;;;;;4994805;28;20070;-69
2021/06/17 01:43:36;;;;;;;3.38;3.00;;;17.90;65.50;;;;;;4996560;28;20042;-68
2021/06/17 01:46:03;;;;;;;4.97;3.30;;;17.90;65.50;;;;;;4997880;28;20035;-68
2021/06/17 01:48:29;;;;;;;3.65;2.72;;;17.80;65.70;;;;;;4996941;28;20141;-69
2021/06/17 01:50:56;;;;;;;2.83;2.63;;;17.80;65.80;;;;;;4998028;28;20106;-68
2021/06/17 01:53:24;;;;;;;3.17;2.60;;;17.80;65.80;;;;;;4994810;28;20038;-69
2021/06/17 01:55:55;;;;;;;5.15;2.63;;;17.80;65.90;;;;;;4994381;28;20117;-68
2021/06/17 01:58:21;;;;;;;3.17;2.88;;;17.80;65.90;;;;;;4996537;28;20048;-69
2021/06/17 02:00:49;;;;;;;3.40;3.10;;;17.80;65.90;;;;;;4994987;28;20169;-68
2021/06/17 02:03:16;;;;;;;3.35;3.05;;;17.70;66.00;;;;;;4992437;28;20689;-68
2021/06/17 02:05:42;;;;;;;4.13;3.10;;;17.70;66.10;;;;;;4997117;28;20096;-68
2021/06/17 02:08:09;;;;;;;3.78;3.03;;;17.70;66.40;;;;;;4997100;28;20035;-69
2021/06/17 02:10:39;;;;;;;4.32;3.33;;;17.60;66.50;;;;;;4997106;28;20025;-68
2021/06/17 02:13:09;;;;;;;3.25;3.00;;;17.60;66.70;;;;;;4998838;28;20132;-68
2021/06/17 02:15:36;;;;;;;2.97;2.65;;;17.60;66.70;;;;;;4996539;28;20045;-68
2021/06/17 02:18:03;;;;;;;3.30;3.00;;;17.50;66.60;;;;;;4995214;28;20085;-68
2021/06/17 02:20:29;;;;;;;3.40;3.10;;;17.50;66.90;;;;;;5000203;28;20042;-69
2021/06/17 02:22:59;;;;;;;3.67;3.10;;;17.50;66.70;;;;;;5004169;28;20520;-68
2021/06/17 02:25:26;;;;;;;2.90;2.65;;;17.50;66.80;;;;;;5000554;28;20038;-69
2021/06/17 02:27:57;;;;;;;2.92;2.60;;;17.50;66.60;;;;;;4999047;28;20115;-69
2021/06/17 02:30:25;;;;;;;3.65;3.15;;;17.60;66.70;;;;;;4998659;28;20117;-69
2021/06/17 02:32:53;;;;;;;3.13;2.83;;;17.60;66.60;;;;;;4999087;28;20038;-68
2021/06/17 02:35:22;;;;;;;3.20;2.90;;;17.50;66.50;;;;;;5000443;28;20073;-69
2021/06/17 02:37:57;;;;;;;3.08;2.63;;;17.50;66.80;;;;;;5015152;28;21832;-69
2021/06/17 02:40:24;;;;;;;;;;;17.50;66.70;;;;;;5000281;28;20041;-69
2021/06/17 02:42:52;;;;;;;4.38;2.67;;;17.50;66.00;;;;;;5000649;28;19914;-68
2021/06/17 02:45:18;;;;;;;4.88;2.85;;;17.50;66.80;;;;;;5000881;28;21092;-68
2021/06/17 02:47:43;;;;;;;4.60;3.08;;;17.50;66.00;;;;;;4998143;28;20034;-68
2021/06/17 02:50:10;;;;;;;4.43;2.85;;;17.40;66.20;;;;;;4999090;28;20081;-68
2021/06/17 02:52:40;;;;;;;3.92;3.03;;;17.40;66.50;;;;;;5000672;28;20089;-68
2021/06/17 02:55:07;;;;;;;3.80;2.67;;;17.40;67.10;;;;;;4997572;28;20034;-68
2021/06/17 02:58:08;;;;;;;4.00;2.65;;;17.40;66.40;;;;;;4999121;28;20429;-68
2021/06/17 03:00:37;;;;;;;5.18;3.20;;;17.40;67.00;;;;;;4967293;28;20592;-68
2021/06/17 03:03:22;;;;;;;3.50;3.20;;;17.40;66.30;;;;;;4997218;28;20033;-68
2021/06/17 03:05:55;;;;;;;4.93;2.92;;;17.40;66.20;;;;;;5003546;28;20062;-68
2021/06/17 03:08:56;;;;;;;4.47;3.15;;;17.40;66.60;;;;;;5001151;28;20045;-69
2021/06/17 03:11:24;;;;;;;4.60;3.00;;;17.40;67.10;;;;;;4984558;28;20501;-68
2021/06/17 03:13:53;;;;;;;6.00;3.28;;;17.40;66.30;;;;;;4998629;28;20133;-68
2021/06/17 03:16:28;;;;;;;5.03;3.00;;;17.40;66.70;;;;;;4997961;28;20407;-68
2021/06/17 03:18:58;;;;;;;3.58;3.28;;;17.40;67.40;;;;;;4999214;28;20042;-69
2021/06/17 03:21:26;;;;;;;5.13;3.60;;;17.30;67.10;;;;;;4995430;28;20061;-68
2021/06/17 03:23:53;;;;;;;4.45;3.47;;;17.30;67.40;;;;;;4997054;28;20514;-68
2021/06/17 03:26:20;;;;;;;4.45;3.80;;;17.20;67.40;;;;;;5000047;28;20065;-69
2021/06/17 03:28:48;;;;;;;7.07;4.10;;;17.20;67.60;;;;;;4999568;28;20033;-69
2021/06/17 03:31:16;;;;;;;4.65;4.05;;;17.10;68.10;;;;;;5000025;28;20406;-68
2021/06/17 03:33:43;;;;;;;4.75;4.20;;;17.10;68.30;;;;;;5001762;28;20082;-69
2021/06/17 03:36:10;;;;;;;6.30;4.07;;;17.00;68.40;;;;;;4994696;28;20062;-68
2021/06/17 03:38:38;;;;;;;5.97;3.90;;;17.00;68.60;;;;;;4995805;28;20046;-68
2021/06/17 03:41:06;;;;;;;5.20;4.00;;;17.00;68.80;;;;;;4996371;28;20049;-68
2021/06/17 03:43:34;;;;;;;4.50;3.45;;;16.90;68.90;;;;;;4994794;28;20161;-69
2021/06/17 03:46:01;;;;;;;4.70;4.22;;;16.90;69.00;;;;;;4995354;28;20441;-69
2021/06/17 03:48:28;;;;;;;6.10;3.65;;;16.90;69.20;;;;;;4998323;28;20026;-69
2021/06/17 03:50:54;;;;;;;4.22;3.83;;;16.90;69.20;;;;;;4994276;28;20168;-69
2021/06/17 03:53:21;;;;;;;4.45;3.90;;;16.90;69.20;;;;;;4997726;28;20036;-68
2021/06/17 03:55:47;;;;;;;3.95;3.60;;;16.90;69.20;;;;;;4996673;28;20042;-68
2021/06/17 03:58:13;;;;;;;4.30;3.90;;;16.90;69.20;;;;;;4996632;28;20577;-69
2021/06/17 04:00:39;;;;;;;4.18;3.53;;;17.00;69.30;;;;;;4997600;28;20168;-69
2021/06/17 04:03:10;;;;;;;7.07;4.28;;;17.00;69.20;;;;;;5000034;28;20134;-68
2021/06/17 04:05:36;;;;;;;5.70;3.88;;;17.00;69.80;;;;;;4997495;28;20034;-68
2021/06/17 04:08:02;;;;;;;5.65;4.32;;;17.00;69.30;;;;;;4998565;28;20030;-69
2021/06/17 04:10:30;;;;;;;5.07;3.80;;;17.00;69.50;;;;;;4998450;28;20037;-69
2021/06/17 04:12:57;;;;;;;4.03;3.67;;;16.90;69.80;;;;;;4998666;28;20034;-68
2021/06/17 04:15:25;;;;;;;8.82;4.28;;;16.90;69.90;;;;;;4996726;28;20049;-68
2021/06/17 04:17:57;;;;;;;4.13;3.67;;;16.90;70.00;;;;;;4991920;28;20061;-68
2021/06/17 04:20:33;;;;;;;5.00;4.05;;;16.90;70.20;;;;;;4994002;28;20040;-68
2021/06/17 04:23:00;;;;;;;5.53;4.50;;;16.90;70.80;;;;;;4996446;28;20025;-68
2021/06/17 04:25:26;;;;;;;8.68;5.07;;;17.00;70.30;;;;;;4998124;28;20062;-68
2021/06/17 04:27:57;;;;;;;8.50;4.95;;;17.00;70.20;;;;;;4997942;28;20429;-69
2021/06/17 04:30:25;;;;;;;8.05;5.15;;;17.10;70.40;;;;;;4998554;28;20030;-70
2021/06/17 04:32:52;;;;;;;5.63;4.78;;;17.10;70.20;;;;;;4997145;28;20038;-69
2021/06/17 04:35:21;;;;;;;8.68;5.03;;;17.10;70.40;;;;;;4997075;28;20068;-68
2021/06/17 04:37:47;;;;;;;6.68;5.25;;;17.20;71.00;;;;;;5003197;28;20041;-69
2021/06/17 04:40:15;;;;;;;7.13;5.20;;;17.20;70.60;;;;;;4996250;28;20391;-69
2021/06/17 04:42:41;;;;;;;5.50;4.78;;;17.30;70.80;;;;;;4996982;28;20026;-69
2021/06/17 04:45:07;;;;;;;5.50;4.97;;;17.30;70.70;;;;;;4996999;28;20108;-68
2021/06/17 04:47:36;;;;;;;6.70;4.65;;;17.30;70.80;;;;;;4998400;28;20037;-68
2021/06/17 04:50:02;;;;;;;6.40;4.65;;;17.40;71.10;;;;;;4996299;28;20022;-68
2021/06/17 04:52:36;;;;;;;6.85;5.65;;;17.40;71.00;;;;;;4999151;28;20037;-68
2021/06/17 04:55:02;;;;;;;7.30;4.97;;;17.40;71.20;;;;;;4995571;28;20043;-68
2021/06/17 04:57:27;;;;;;;5.50;5.00;;;17.40;71.40;;;;;;4998564;28;20030;-68
2021/06/17 04:59:53;;;;;;;6.32;5.28;;;17.40;71.60;;;;;;4999307;28;20073;-69
2021/06/17 05:02:19;;;;;;;6.88;5.45;;;17.50;71.70;;;;;;4997003;28;20101;-69
2021/06/17 05:04:44;;;;;;;9.57;5.55;;;17.60;72.00;;;;;;4996540;28;20034;-69
2021/06/17 05:12:26;;;;;;;6.18;5.25;;;17.70;72.10;;;;;;4996373;28;20095;-69
2021/06/17 05:14:51;;;;;;;6.60;5.95;;;17.80;72.20;;;;;;4996531;28;20037;-68
2021/06/17 05:17:17;;;;;;;7.28;5.97;;;17.90;72.60;;;;;;4996671;28;20088;-68
2021/06/17 05:19:43;;;;;;;6.10;5.50;;;18.00;72.60;;;;;;4997509;28;20037;-69
2021/06/17 05:22:10;;;;;;;6.82;5.93;;;18.10;72.50;;;;;;4998184;28;20089;-68
2021/06/17 05:24:36;;;;;;;6.10;5.47;;;18.20;72.30;;;;;;4995373;28;20180;-69
2021/06/17 05:27:02;;;;;;;6.90;5.60;;;18.30;72.00;;;;;;4998977;28;20149;-68
2021/06/17 05:29:29;;;;;;;7.40;5.95;;;18.40;71.70;;;;;;4997911;28;20565;-69
2021/06/17 05:31:55;;;;;;;9.40;6.47;;;18.50;72.00;;;;;;5012654;28;20061;-69
2021/06/17 05:34:21;;;;;;;8.13;6.35;;;18.70;71.50;;;;;;4996897;28;20093;-69
2021/06/17 05:36:46;;;;;;;10.20;6.28;;;18.80;70.90;;;;;;4994617;28;20042;-69
2021/06/17 05:39:12;;;;;;;8.60;6.88;;;18.90;71.00;;;;;;5003745;28;20546;-69
2021/06/17 05:41:38;;;;;;;7.75;6.95;;;19.10;71.10;;;;;;5005201;28;20037;-68
2021/06/17 05:44:04;;;;;;;9.48;6.53;;;19.20;70.80;;;;;;4995554;28;20402;-68
2021/06/17 05:46:30;;;;;;;7.18;6.40;;;19.30;70.70;;;;;;4993488;28;20532;-69
2021/06/17 05:48:55;;;;;;;8.27;6.70;;;19.40;70.60;;;;;;4998180;28;20041;-69
2021/06/17 05:51:21;;;;;;;11.77;6.72;;;19.60;70.20;;;;;;4997478;28;20481;-68
2021/06/17 05:53:46;;;;;;;8.80;7.40;;;19.70;69.90;;;;;;5004487;28;20501;-68
2021/06/17 05:56:12;;;;;;;9.95;7.30;;;19.80;69.70;;;;;;5002262;28;20088;-69
2021/06/17 05:58:38;;;;;;;8.98;7.32;;;19.90;69.20;;;;;;4999989;28;20497;-69
2021/06/17 06:01:03;;;;;;;8.80;7.75;;;20.00;68.90;;;;;;5001560;28;20073;-68
2021/06/17 06:03:29;;;;;;;10.10;7.57;;;20.10;68.60;;;;;;5002480;28;20064;-68
2021/06/17 06:05:55;;;;;;;7.78;6.97;;;20.20;68.50;;;;;;5001322;28;20030;-69
2021/06/17 06:08:21;;;;;;;10.68;7.43;;;20.30;68.40;;;;;;5000227;28;20041;-69
2021/06/17 06:10:46;;;;;;;7.93;6.93;;;20.40;68.20;;;;;;4997203;28;20045;-69
2021/06/17 06:13:12;;;;;;;8.18;7.00;;;20.50;68.00;;;;;;5006979;28;20114;-69
2021/06/17 06:15:38;;;;;;;8.75;6.55;;;20.60;67.90;;;;;;4999375;28;20038;-69
2021/06/17 06:18:09;;;;;;;8.88;7.28;;;20.60;67.40;;;;;;5000719;28;20428;-68
2021/06/17 06:20:36;;;;;;;8.15;6.82;;;20.80;67.50;;;;;;5000080;28;20078;-69
2021/06/17 06:23:02;;;;;;;7.80;7.00;;;20.90;67.20;;;;;;4999377;28;21718;-69
2021/06/17 06:25:28;;;;;;;10.25;7.88;;;21.00;67.20;;;;;;5000567;28;20038;-69
2021/06/17 06:27:55;;;;;;;9.73;7.18;;;21.10;66.90;;;;;;5001611;28;20042;-69
2021/06/17 06:30:20;;;;;;;11.45;7.88;;;21.10;66.70;;;;;;5001300;28;20061;-69
2021/06/17 06:32:46;;;;;;;10.00;6.88;;;21.20;66.40;;;;;;5001565;28;20112;-69
2021/06/17 06:35:12;;;;;;;8.70;7.03;;;21.30;67.10;;;;;;5005402;28;20485;-69
2021/06/17 06:37:39;;;;;;;8.80;7.07;;;21.40;65.70;;;;;;4999899;28;20109;-69
2021/06/17 06:40:06;;;;;;;11.00;7.80;;;21.50;65.40;;;;;;4997874;28;20524;-69
2021/06/17 06:42:31;;;;;;;9.38;7.38;;;21.60;65.20;;;;;;5000228;28;20034;-69
2021/06/17 06:44:57;;;;;;;10.00;6.72;;;21.70;65.00;;;;;;4999924;28;20049;-69
2021/06/17 06:47:23;;;;;;;7.57;6.68;;;21.70;64.90;;;;;;4999005;28;20034;-69
2021/06/17 06:49:49;;;;;;;7.13;6.53;;;21.80;64.60;;;;;;5000134;28;20120;-69
2021/06/17 06:52:15;;;;;;;7.65;6.40;;;21.90;64.50;;;;;;5000331;28;20035;-69
2021/06/17 06:54:41;;;;;;;8.63;6.90;;;22.00;64.30;;;;;;4997944;28;20107;-69
2021/06/17 06:57:07;;;;;;;11.30;7.20;;;22.10;64.00;;;;;;5000319;28;20502;-69
2021/06/17 06:59:32;;;;;;;10.88;6.85;;;22.10;63.70;;;;;;5000624;28;20064;-69
2021/06/17 07:01:58;;;;;;;8.32;6.55;;;22.20;63.70;;;;;;4990161;28;21183;-69
2021/06/17 07:04:25;;;;;;;8.63;6.68;;;22.30;63.70;;;;;;4997120;28;20124;-69
2021/06/17 07:06:51;;;;;;;8.85;7.25;;;22.40;63.40;;;;;;4999309;28;20045;-69
2021/06/17 07:09:16;;;;;;;8.05;7.22;;;22.50;63.30;;;;;;5003846;28;20031;-69
2021/06/17 07:11:42;;;;;;;7.93;6.80;;;22.60;63.40;;;;;;4997515;28;20045;-69
2021/06/17 07:14:08;;;;;;;7.50;6.80;;;22.60;63.30;;;;;;4998474;28;20085;-69
2021/06/17 07:16:34;;;;;;;8.30;6.32;;;22.70;63.10;;;;;;4998441;28;20053;-69
2021/06/17 07:19:02;;;;;;;8.98;7.38;;;22.80;62.90;;;;;;4999487;28;20038;-70
2021/06/17 07:21:29;;;;;;;7.68;6.88;;;23.00;62.60;;;;;;4998503;28;20030;-69
2021/06/17 07:23:56;;;;;;;7.75;7.00;;;23.00;62.50;;;;;;4999824;28;20111;-69
2021/06/17 07:26:26;;;;;;;10.98;6.65;;;23.10;62.10;;;;;;4996249;28;20034;-69
2021/06/17 07:28:52;;;;;;;8.27;6.32;;;23.20;62.30;;;;;;4996532;28;20034;-69
2021/06/17 07:31:17;;;;;;;8.40;6.55;;;23.30;62.00;;;;;;4999261;28;20691;-69
2021/06/17 07:33:43;;;;;;;7.07;6.38;;;23.40;61.20;;;;;;4999268;28;20031;-69
2021/06/17 07:36:12;;;;;;;6.93;6.32;;;23.50;61.20;;;;;;4999596;28;20506;-69
2021/06/17 07:38:38;;;;;;;7.50;6.32;;;23.60;61.00;;;;;;4999575;28;20038;-69
2021/06/17 07:41:03;;;;;;;7.55;6.50;;;23.60;60.90;;;;;;4999838;28;20053;-69
2021/06/17 07:43:30;;;;;;;7.82;6.10;;;23.70;61.00;;;;;;4996628;28;20680;-69
2021/06/17 07:45:56;;;;;;;7.10;6.40;;;23.90;60.80;;;;;;4997104;28;20038;-69
2021/06/17 07:48:22;;;;;;;6.97;6.28;;;24.00;60.80;;;;;;4999576;28;20041;-69
2021/06/17 07:50:47;;;;;;;8.02;6.53;;;24.10;61.00;;;;;;4999432;28;20030;-69
2021/06/17 07:53:13;;;;;;;6.63;6.03;;;24.30;60.80;;;;;;5000538;28;20030;-69
2021/06/17 07:55:39;;;;;;;7.28;6.57;;;24.40;60.70;;;;;;4997057;28;20034;-69
2021/06/17 07:58:05;;;;;;;7.43;6.72;;;24.50;60.10;;;;;;4999527;28;20577;-69
2021/06/17 08:00:31;;;;;;;7.78;6.35;;;24.70;60.10;;;;;;4997083;28;20125;-69
2021/06/17 08:02:57;;;;;;;8.05;7.07;;;24.80;59.80;;;;;;4999696;28;20033;-69
2021/06/17 08:05:23;;;;;;;7.40;6.70;;;24.90;59.70;;;;;;5002055;28;20030;-69
2021/06/17 08:07:49;;;;;;;8.60;6.82;;;25.00;59.10;;;;;;4998852;28;20039;-69
2021/06/17 08:10:15;;;;;;;7.47;6.78;;;25.20;58.80;;;;;;4998701;28;20026;-69
2021/06/17 08:12:41;;;;;;;7.90;7.10;;;25.30;58.60;;;;;;4999644;28;20045;-69
2021/06/17 08:15:07;;;;;;;8.10;6.88;;;25.50;58.00;;;;;;4997694;28;20397;-69
2021/06/17 08:17:33;;;;;;;9.18;6.40;;;25.60;57.50;;;;;;5002596;28;20038;-69
2021/06/17 08:19:59;;;;;;;7.80;6.05;;;25.70;57.50;;;;;;5002500;28;20038;-69
2021/06/17 08:22:27;;;;;;;7.88;6.28;;;25.80;58.00;;;;;;4998393;28;20046;-69
2021/06/17 08:24:53;;;;;;;9.23;6.55;;;25.90;57.30;;;;;;4998293;28;20038;-69
2021/06/17 08:27:19;;;;;;;9.65;6.80;;;26.00;56.60;;;;;;5002191;28;20038;-69
2021/06/17 08:29:45;;;;;;;6.82;6.10;;;26.10;56.10;;;;;;4999262;28;20065;-69
2021/06/17 08:32:10;;;;;;;7.78;5.80;;;26.20;56.40;;;;;;4996857;28;20518;-69
2021/06/17 08:34:36;;;;;;;6.18;5.35;;;26.40;56.30;;;;;;4998212;28;20121;-69
2021/06/17 08:37:04;;;;;;;7.18;5.30;;;26.40;56.00;;;;;;4998473;28;20031;-67
2021/06/17 08:39:31;;;;;;;6.95;6.10;;;26.60;56.00;;;;;;4998506;28;20546;-67
2021/06/17 08:41:57;;;;;;;7.18;5.97;;;26.70;56.20;;;;;;4998610;28;20034;-67
2021/06/17 08:44:23;;;;;;;6.50;5.47;;;26.80;55.20;;;;;;4998454;28;20034;-67
2021/06/17 08:46:51;;;;;;;6.82;5.13;;;27.00;55.60;;;;;;4993515;28;20038;-67
2021/06/17 08:49:18;;;;;;;7.55;6.13;;;27.10;55.80;;;;;;4997922;28;20564;-67
2021/06/17 08:51:47;;;;;;;9.63;6.50;;;27.20;55.50;;;;;;4997603;28;20034;-67
2021/06/17 08:54:19;;;;;;;6.35;5.68;;;27.40;55.00;;;;;;4996363;28;20517;-67
2021/06/17 08:56:49;;;;;;;6.85;5.00;;;27.50;54.70;;;;;;4997000;28;20050;-67
2021/06/17 08:59:16;;;;;;;5.90;5.40;;;27.60;54.80;;;;;;4999121;28;20589;-67
2021/06/17 09:02:02;;;;;;;7.00;6.28;;;27.80;54.70;;;;;;4997365;28;20034;-67
2021/06/17 09:04:30;;;;;;;6.63;6.00;;;28.00;53.40;;;;;;5002970;28;20480;-67
2021/06/17 09:07:01;;;;;;;4.65;3.80;;;28.20;53.70;;;;;;4997909;28;20484;-67
2021/06/17 09:09:41;;;;;;;5.60;3.55;;;28.30;53.00;;;;;;4998711;28;20457;-67
2021/06/17 09:12:09;;;;;;;14.35;4.63;;;28.40;52.40;;;;;;4997509;28;20379;-67
2021/06/17 09:14:37;;;;;;;8.23;3.97;;;28.60;52.60;;;;;;4997516;28;20475;-67
2021/06/17 09:17:08;;;;;;;4.20;3.70;;;28.70;52.20;;;;;;4995017;28;20038;-67
2021/06/17 09:19:48;;;;;;;6.85;3.90;;;28.90;51.50;;;;;;4998241;28;20041;-67
2021/06/17 09:22:21;;;;;;;4.38;3.83;;;29.00;50.80;;;;;;4997277;28;20041;-67
2021/06/17 09:24:50;;;;;;;4.57;3.60;;;29.20;51.50;;;;;;4996578;28;20521;-67
2021/06/17 09:27:25;;;;;;;4.72;3.35;;;29.40;51.30;;;;;;4999101;28;20099;-67
2021/06/17 09:29:55;;;;;;;;;;;29.50;50.70;;;;;;5001337;28;20045;-68
2021/06/17 09:32:31;;;;;;;5.72;3.55;;;29.70;51.80;;;;;;5002898;28;19953;-67
2021/06/17 09:34:57;;;;;;;5.38;3.80;;;29.80;50.40;;;;;;4999977;28;20034;-67
2021/06/17 09:37:36;;;;;;;4.65;4.25;;;29.90;50.10;;;;;;5005921;28;20564;-67
2021/06/17 09:40:29;;;;;;;6.93;4.20;;;30.00;48.90;;;;;;5002545;28;20064;-67
2021/06/17 09:43:34;;;;;;;4.10;3.70;;;30.10;49.00;;;;;;5002116;28;20037;-67
2021/06/17 09:46:04;;;;;;;6.07;4.00;;;30.30;49.30;;;;;;4980662;28;20034;-67
2021/06/17 09:48:35;;;;;;;4.20;3.63;;;30.40;49.00;;;;;;5000739;28;20030;-67
2021/06/17 09:51:23;;;;;;;4.10;3.70;;;30.50;48.90;;;;;;5001583;28;20081;-67
2021/06/17 09:53:50;;;;;;;4.03;3.63;;;30.60;48.10;;;;;;4998836;28;20033;-67
2021/06/17 09:56:24;;;;;;;5.97;3.75;;;30.70;48.30;;;;;;5000320;28;20038;-68
2021/06/17 09:58:50;;;;;;;;;;;30.80;47.40;;;;;;5002115;28;20034;-67
2021/06/17 10:01:30;;;;;;;4.00;3.17;;;31.00;48.60;;;;;;5002443;28;19909;-67
2021/06/17 10:04:03;;;;;;;7.20;3.30;;;31.10;47.40;;;;;;4999334;28;20030;-67
2021/06/17 10:06:29;;;;;;;5.10;3.50;;;31.20;46.40;;;;;;5000468;28;20033;-68
2021/06/17 10:08:55;;;;;;;3.83;3.13;;;31.30;46.40;;;;;;5000807;28;20049;-68
2021/06/17 10:11:22;;;;;;;4.00;3.70;;;31.40;46.20;;;;;;4998345;28;20042;-67
2021/06/17 10:13:49;;;;;;;5.15;3.50;;;31.50;46.00;;;;;;5001039;28;20114;-67
2021/06/17 10:16:17;;;;;;;7.68;3.05;;;31.60;45.30;;;;;;5000029;28;20391;-67
2021/06/17 10:18:47;;;;;;;4.05;3.08;;;31.70;44.60;;;;;;4999666;28;20045;-68
2021/06/17 10:21:17;;;;;;;6.03;3.42;;;31.70;44.40;;;;;;4998106;28;20053;-67
2021/06/17 10:23:46;;;;;;;3.30;3.00;;;31.80;43.20;;;;;;5000141;28;20579;-67
2021/06/17 10:26:12;;;;;;;5.03;3.38;;;31.90;43.80;;;;;;4998149;28;20050;-67
2021/06/17 10:28:47;;;;;;;3.28;2.97;;;31.90;43.50;;;;;;5000425;28;20029;-67
2021/06/17 10:31:32;;;;;;;3.78;3.47;;;32.00;42.60;;;;;;4999045;28;20030;-67
2021/06/17 10:34:18;;;;;;;8.02;3.55;;;32.00;42.40;;;;;;5000753;28;20026;-67
2021/06/17 10:37:12;;;;;;;7.60;3.65;;;32.10;43.00;;;;;;4998521;28;20038;-67
2021/06/17 10:39:40;;;;;;;4.80;3.28;;;32.10;42.10;;;;;;4998757;28;20569;-67
2021/06/17 10:42:09;;;;;;;3.40;3.10;;;32.10;42.00;;;;;;5000099;28;20045;-68
2021/06/17 10:44:51;;;;;;;3.85;2.63;;;32.20;41.30;;;;;;4999485;28;20375;-67
2021/06/17 10:47:38;;;;;;;3.53;2.83;;;32.20;41.00;;;;;;4999131;28;20054;-67
2021/06/17 10:50:05;;;;;;;3.00;2.67;;;32.30;38.30;;;;;;4999184;28;20053;-68
2021/06/17 10:52:31;;;;;;;4.93;2.42;;;32.30;39.00;;;;;;4996126;28;20034;-68
2021/06/17 10:55:09;;;;;;;2.90;2.67;;;32.40;39.50;;;;;;4998609;28;20096;-68
2021/06/17 10:57:44;;;;;;;4.40;2.80;;;32.40;40.00;;;;;;4998651;28;20412;-67
2021/06/17 11:00:25;;;;;;;4.15;2.70;;;32.50;39.30;;;;;;5000878;28;20405;-67
2021/06/17 11:03:06;;;;;;;3.75;2.78;;;32.60;39.20;;;;;;5000577;28;20030;-67
2021/06/17 11:05:35;;;;;;;3.13;2.50;;;32.70;37.10;;;;;;4998456;28;20395;-67
2021/06/17 11:08:19;;;;;;;3.30;2.70;;;32.70;38.30;;;;;;4994656;28;20109;-67
2021/06/17 11:10:53;;;;;;;2.53;2.30;;;32.80;36.20;;;;;;4996394;28;20116;-67
2021/06/17 11:13:38;;;;;;;2.53;2.30;;;32.70;36.70;;;;;;4997661;28;20168;-68
2021/06/17 11:16:13;;;;;;;3.40;2.53;;;32.70;37.00;;;;;;5000325;28;20606;-67
2021/06/17 11:18:41;;;;;;;2.50;2.30;;;32.70;36.40;;;;;;5004579;28;20084;-68
2021/06/17 11:21:22;;;;;;;3.97;2.30;;;32.80;35.70;;;;;;4997295;28;20447;-67
2021/06/17 11:24:00;;;;;;;4.03;1.85;;;32.70;35.20;;;;;;4998740;28;20053;-68
2021/06/17 11:26:44;;;;;;;3.72;2.42;;;32.80;36.50;;;;;;4999298;28;20114;-67
2021/06/17 11:29:15;;;;;;;4.07;2.60;;;32.80;35.60;;;;;;4999530;28;20034;-68
2021/06/17 11:31:43;;;;;;;2.47;2.20;;;32.80;36.10;;;;;;5000513;28;20045;-67
2021/06/17 11:34:33;;;;;;;2.40;2.20;;;32.80;35.50;;;;;;4999584;28;20113;-68
2021/06/17 11:37:14;;;;;;;4.93;2.45;;;32.80;34.90;;;;;;4997855;28;20029;-68
2021/06/17 11:39:40;;;;;;;2.58;2.38;;;32.80;34.90;;;;;;4998822;28;20054;-68
2021/06/17 11:42:11;;;;;;;3.80;2.20;;;32.80;34.90;;;;;;4997034;28;20033;-68
2021/06/17 11:44:37;;;;;;;3.00;2.30;;;32.80;34.60;;;;;;4998439;28;20053;-67
2021/06/17 11:47:11;;;;;;;2.30;1.95;;;32.80;35.50;;;;;;4999875;28;20070;-67
2021/06/17 11:49:47;;;;;;;2.47;2.20;;;32.80;36.00;;;;;;4995592;28;20048;-67
2021/06/17 11:52:19;;;;;;;3.72;2.30;;;32.90;35.50;;;;;;4997726;28;20035;-67
2021/06/17 11:54:46;;;;;;;2.80;2.50;;;32.90;34.90;;;;;;4997532;28;20034;-68
2021/06/17 11:57:13;;;;;;;2.20;2.10;;;32.90;35.40;;;;;;4999106;28;20057;-68
2021/06/17 11:59:42;;;;;;;3.10;2.50;;;32.90;36.00;;;;;;4999697;28;20096;-67
2021/06/17 12:02:09;;;;;;;4.30;2.33;;;33.00;35.50;;;;;;4999019;28;20044;-68
2021/06/17 12:04:44;;;;;;;3.80;2.13;;;33.00;35.40;;;;;;4998211;28;20066;-68
2021/06/17 12:07:11;;;;;;;6.63;2.20;;;33.00;35.00;;;;;;4996068;28;20065;-68
2021/06/17 12:09:38;;;;;;;5.55;2.47;;;33.00;34.90;;;;;;5003820;28;20054;-68
2021/06/17 12:12:17;;;;;;;2.17;2.08;;;32.90;34.30;;;;;;4995955;28;20038;-67
2021/06/17 12:14:47;;;;;;;2.60;2.10;;;32.90;33.70;;;;;;4995031;28;20111;-68
2021/06/17 12:17:28;;;;;;;2.50;2.15;;;32.90;34.80;;;;;;4998187;28;20117;-68
2021/06/17 12:19:55;;;;;;;4.82;2.53;;;32.90;35.50;;;;;;4998675;28;20413;-68
2021/06/17 12:22:21;;;;;;;3.13;2.00;;;33.00;35.40;;;;;;4998841;28;20184;-68
2021/06/17 12:24:47;;;;;;;2.25;1.92;;;33.10;35.10;;;;;;4998710;28;20546;-68
2021/06/17 12:27:12;;;;;;;2.40;2.20;;;33.20;34.20;;;;;;5002761;28;20038;-68
2021/06/17 12:29:38;;;;;;;2.75;2.05;;;33.20;33.90;;;;;;5001547;28;20084;-67
2021/06/17 12:32:04;;;;;;;3.42;2.28;;;33.20;34.00;;;;;;4997203;28;20046;-68
2021/06/17 12:34:39;;;;;;;5.65;2.15;;;33.30;33.40;;;;;;4998918;28;20112;-68
2021/06/17 12:37:06;;;;;;;2.30;2.10;;;33.30;34.20;;;;;;4996705;28;20068;-68
2021/06/17 12:39:32;;;;;;;2.42;2.20;;;33.30;33.60;;;;;;4994787;28;20584;-68
2021/06/17 12:41:58;;;;;;;2.78;1.98;;;33.30;33.50;;;;;;4997338;28;20117;-67
2021/06/17 12:44:39;;;;;;;2.40;2.20;;;33.40;33.90;;;;;;4997765;28;20146;-68
2021/06/17 12:47:17;;;;;;;3.17;2.15;;;33.50;32.70;;;;;;4998399;28;20042;-68
2021/06/17 12:52:36;;;;;;;5.18;2.00;;;33.60;34.00;;;;;;4997341;28;20670;-67
2021/06/17 12:55:04;;;;;;;2.25;2.05;;;33.60;34.90;;;;;;4998151;28;20038;-68
2021/06/17 12:57:30;;;;;;;2.58;2.03;;;33.60;34.20;;;;;;4996561;28;20026;-67
2021/06/17 12:59:56;;;;;;;2.40;1.83;;;33.70;33.50;;;;;;4997742;28;20057;-68
2021/06/17 13:02:22;;;;;;;2.47;2.20;;;33.70;33.40;;;;;;4997371;28;20031;-68
2021/06/17 13:05:02;;;;;;;2.67;1.67;;;33.80;33.70;;;;;;4995760;28;20041;-69
2021/06/17 13:07:28;;;;;;;2.10;1.90;;;33.90;33.90;;;;;;4998575;28;20460;-68